Time;durP1;ratioP1;P1;durP2;ratioP2;P2;SDS_P1;SDS_P2;PMS_P1;PMS_P2;Temp;Humidity;BMP_temperature;BMP_pressure;BME280_temperature;BME280_humidity;BME280_pressure;Samples;Min_cycle;Max_cycle;Signal;HPM_P1;HPM_P2
2022/03/31 00:00:39;;;;;;;4.93;1.88;;;;;;;3.82;100.00;101261.66;5049597;28;20127;-87
2022/03/31 00:03:10;;;;;;;7.70;1.90;;;;;;;3.52;100.00;101255.63;5058457;28;20072;-87
2022/03/31 00:05:39;;;;;;;6.70;1.42;;;;;;;3.65;100.00;101247.00;5050755;28;20059;-87
2022/03/31 00:08:15;;;;;;;6.35;1.42;;;;;;;3.45;100.00;101265.09;5056521;28;20086;-85
2022/03/31 00:10:51;;;;;;;3.85;1.35;;;;;;;3.79;100.00;101231.44;5057449;28;20051;-87
2022/03/31 00:13:24;;;;;;;6.85;1.30;;;;;;;3.79;100.00;101236.63;5070419;28;20049;-87
2022/03/31 00:15:52;;;;;;;10.80;1.92;;;;;;;3.79;100.00;101227.13;5077913;28;20044;-87
2022/03/31 00:18:19;;;;;;;11.63;2.50;;;;;;;3.40;100.00;101212.50;5078168;28;20052;-86
2022/03/31 00:20:46;;;;;;;4.90;2.13;;;;;;;3.55;100.00;101211.63;5076822;28;20056;-87
2022/03/31 00:23:13;;;;;;;10.43;1.73;;;;;;;3.33;100.00;101202.97;5076565;28;20063;-87
2022/03/31 00:25:40;;;;;;;7.35;1.55;;;;;;;3.45;100.00;101192.63;5077289;28;20051;-87
2022/03/31 00:28:07;;;;;;;4.55;1.60;;;;;;;3.41;100.00;101190.91;5077220;28;20075;-87
2022/03/31 00:30:35;;;;;;;4.70;1.27;;;;;;;3.38;100.00;101214.19;5076988;28;20133;-87
2022/03/31 00:33:02;;;;;;;4.22;1.25;;;;;;;3.37;100.00;101197.81;5076441;28;20053;-87
2022/03/31 00:35:30;;;;;;;4.10;1.52;;;;;;;3.22;100.00;101228.88;5077702;28;20127;-87
2022/03/31 00:37:57;;;;;;;4.72;1.52;;;;;;;2.97;100.00;101152.97;5077872;28;20448;-86
2022/03/31 00:40:25;;;;;;;5.30;1.70;;;;;;;3.40;100.00;101215.09;5077399;28;20603;-87
2022/03/31 00:42:57;;;;;;;5.43;1.60;;;;;;;3.28;100.00;101220.28;5076833;28;20052;-87
2022/03/31 00:45:32;;;;;;;9.50;1.45;;;;;;;3.29;100.00;101212.47;5077224;28;20053;-87
2022/03/31 00:47:59;;;;;;;7.82;1.88;;;;;;;3.40;100.00;101218.53;5076696;28;20048;-87
2022/03/31 00:50:26;;;;;;;6.03;1.85;;;;;;;3.36;100.00;101226.28;5077292;28;20754;-87
2022/03/31 00:52:53;;;;;;;3.92;1.45;;;;;;;3.24;100.00;101211.63;5075076;28;20044;-87
2022/03/31 00:55:41;;;;;;;3.97;1.40;;;;;;;3.19;100.00;101210.78;5077731;28;20410;-87
2022/03/31 00:58:08;;;;;;;2.78;1.20;;;;;;;3.20;100.00;101187.47;5077116;28;20079;-87
2022/03/31 01:00:36;;;;;;;6.75;1.77;;;;;;;2.91;100.00;101205.56;5076809;28;20040;-87
2022/03/31 01:03:03;;;;;;;9.30;1.70;;;;;;;3.06;100.00;101211.63;5076683;28;20048;-86
2022/03/31 01:05:30;;;;;;;6.32;1.65;;;;;;;3.06;100.00;101209.88;5078147;28;20071;-86
2022/03/31 01:07:57;;;;;;;7.07;1.75;;;;;;;2.88;100.00;101197.78;5076461;28;20131;-86
2022/03/31 01:10:24;;;;;;;5.05;1.70;;;;;;;2.75;100.00;101194.31;5076212;28;20044;-87
2022/03/31 01:12:51;;;;;;;7.95;1.63;;;;;;;2.97;100.00;101205.56;5070903;28;20043;-85
2022/03/31 01:15:19;;;;;;;4.47;1.50;;;;;;;2.93;100.00;101209.00;5057024;28;20057;-86
2022/03/31 01:17:48;;;;;;;4.70;1.50;;;;;;;2.50;100.00;101172.72;5056430;28;20067;-86
2022/03/31 01:20:20;;;;;;;3.85;1.30;;;;;;;2.70;100.00;101190.88;5053094;28;20435;-86
2022/03/31 01:22:51;;;;;;;4.78;1.63;;;;;;;2.68;100.00;101220.19;5059841;28;20098;-86
2022/03/31 01:25:19;;;;;;;6.65;2.15;;;;;;;2.71;100.00;101195.19;5067722;28;20073;-86
2022/03/31 01:27:47;;;;;;;4.25;1.63;;;;;;;2.58;100.00;101216.69;5073134;28;20072;-87
2022/03/31 01:30:17;;;;;;;4.78;1.65;;;;;;;2.59;100.00;101227.03;5073743;28;20048;-86
2022/03/31 01:32:45;;;;;;;4.85;1.50;;;;;;;2.06;100.00;101145.03;5072997;28;20138;-86
2022/03/31 01:35:13;;;;;;;7.50;1.52;;;;;;;2.66;100.00;101223.59;5074554;28;20124;-87
2022/03/31 01:37:41;;;;;;;3.40;1.40;;;;;;;2.88;100.00;101178.81;5073680;28;20052;-86
2022/03/31 01:40:09;;;;;;;4.97;1.70;;;;;;;2.51;100.00;101187.38;5072993;28;20075;-86
2022/03/31 01:42:36;;;;;;;4.68;1.20;;;;;;;2.94;100.00;101220.22;5072846;28;20044;-86
2022/03/31 01:45:05;;;;;;;3.80;1.38;;;;;;;2.57;100.00;101165.84;5069252;28;20055;-85
2022/03/31 01:47:32;;;;;;;2.17;1.23;;;;;;;3.07;100.00;101190.06;5054467;28;20115;-87
2022/03/31 01:50:00;;;;;;;4.57;1.23;;;;;;;2.87;100.00;101172.81;5053064;28;20527;-86
2022/03/31 01:52:28;;;;;;;3.05;1.15;;;;;;;3.11;100.00;101207.31;5058490;28;20047;-86
2022/03/31 01:54:55;;;;;;;3.28;1.33;;;;;;;2.96;100.00;101206.44;5074886;28;20469;-86
2022/03/31 01:57:22;;;;;;;2.40;1.10;;;;;;;2.98;100.00;101204.72;5073102;28;20052;-86
2022/03/31 01:59:48;;;;;;;3.83;1.40;;;;;;;2.94;100.00;101212.44;5074052;28;20123;-86
2022/03/31 02:02:16;;;;;;;2.53;1.23;;;;;;;3.04;100.00;101202.09;5072773;28;20048;-86
2022/03/31 02:04:44;;;;;;;3.97;1.40;;;;;;;2.90;100.00;101209.00;5073521;28;20051;-86
2022/03/31 02:07:11;;;;;;;3.67;1.30;;;;;;;2.96;100.00;101209.03;5072725;28;20060;-86
2022/03/31 02:09:38;;;;;;;5.55;1.40;;;;;;;2.96;100.00;101219.38;5072174;28;20064;-84
2022/03/31 02:12:05;;;;;;;5.22;1.50;;;;;;;2.91;100.00;101222.81;5071996;28;20044;-86
2022/03/31 02:14:41;;;;;;;3.17;1.40;;;;;;;2.74;100.00;101209.84;5071759;28;20132;-86
2022/03/31 02:17:09;;;;;;;4.22;1.65;;;;;;;2.83;100.00;101233.13;5072469;28;20086;-86
2022/03/31 02:19:37;;;;;;;4.13;1.30;;;;;;;2.45;100.00;101184.78;5072573;28;20055;-86
2022/03/31 02:22:05;;;;;;;3.22;1.50;;;;;;;2.71;100.00;101218.47;5072730;28;20044;-86
2022/03/31 02:24:35;;;;;;;3.17;1.30;;;;;;;2.53;100.00;101192.53;5073197;28;20409;-86
2022/03/31 02:27:03;;;;;;;2.72;1.30;;;;;;;2.35;100.00;101136.50;5073697;28;20402;-85
2022/03/31 02:29:29;;;;;;;3.50;1.25;;;;;;;2.11;100.00;101121.78;5071622;28;20128;-87
2022/03/31 02:31:56;;;;;;;3.33;1.15;;;;;;;2.74;100.00;101210.69;5071841;28;20055;-84
2022/03/31 02:34:24;;;;;;;6.07;1.63;;;;;;;2.61;100.00;101220.16;5072354;28;20051;-85
2022/03/31 02:36:50;;;;;;;4.03;1.45;;;;;;;2.53;100.00;101197.72;5071823;28;20131;-84
2022/03/31 02:39:17;;;;;;;5.90;1.50;;;;;;;2.42;100.00;101208.88;5072602;28;20053;-85
2022/03/31 02:41:44;;;;;;;6.60;1.63;;;;;;;2.30;100.00;101192.47;5072299;28;20053;-84
2022/03/31 02:44:11;;;;;;;3.08;1.30;;;;;;;2.44;100.00;101195.97;5067596;28;20061;-86
2022/03/31 02:46:38;;;;;;;5.90;1.58;;;;;;;2.43;100.00;101195.09;5051755;28;20409;-86
2022/03/31 02:49:05;;;;;;;6.22;1.60;;;;;;;2.37;100.00;101186.47;5051339;28;20107;-86
2022/03/31 02:51:32;;;;;;;4.45;1.20;;;;;;;2.08;100.00;101146.75;5057841;28;20040;-87
2022/03/31 02:56:45;;;;;;;5.40;1.58;;;;;;;2.24;100.00;101178.66;5073882;28;20053;-87
2022/03/31 02:59:12;;;;;;;6.88;1.80;;;;;;;1.91;100.00;101138.06;5072007;28;20131;-87
2022/03/31 03:01:38;;;;;;;3.42;1.50;;;;;;;2.40;100.00;101189.06;5070629;28;20080;-87
2022/03/31 03:04:08;;;;;;;7.18;1.75;;;;;;;2.68;100.00;101221.03;5071432;28;20052;-88
2022/03/31 03:06:36;;;;;;;5.40;1.33;;;;;;;2.53;100.00;101223.56;5072714;28;20064;-87
2022/03/31 03:09:04;;;;;;;8.60;2.63;;;;;;;2.22;100.00;101161.44;5072532;28;20135;-87
2022/03/31 03:11:31;;;;;;;6.85;1.98;;;;;;;2.23;100.00;101143.38;5071231;28;20041;-87
2022/03/31 03:13:58;;;;;;;7.88;1.52;;;;;;;2.81;100.00;101212.44;5055502;28;20483;-87
2022/03/31 03:16:25;;;;;;;8.05;2.22;;;;;;;2.62;100.00;101177.03;5072213;28;20051;-87
2022/03/31 03:18:52;;;;;;;8.98;2.53;;;;;;;2.63;100.00;101200.31;5071024;28;20052;-87
2022/03/31 03:21:20;;;;;;;7.65;1.60;;;;;;;2.64;100.00;101199.47;5071422;28;20127;-87
2022/03/31 03:23:48;;;;;;;7.72;1.45;;;;;;;2.34;100.00;101166.66;5069869;28;20051;-87
2022/03/31 03:26:15;;;;;;;2.85;1.27;;;;;;;2.49;100.00;101201.16;5071487;28;20048;-87
2022/03/31 03:28:42;;;;;;;5.55;1.63;;;;;;;2.54;100.00;101196.88;5067861;28;20505;-86
2022/03/31 03:31:09;;;;;;;5.32;1.70;;;;;;;2.59;100.00;101208.94;5050812;28;20066;-87
2022/03/31 03:33:36;;;;;;;15.38;2.17;;;;;;;2.48;100.00;101210.63;5070979;28;20075;-85
2022/03/31 03:36:10;;;;;;;3.85;1.50;;;;;;;2.68;100.00;101208.09;5071974;28;20139;-87
2022/03/31 03:38:37;;;;;;;5.97;1.40;;;;;;;2.58;100.00;101209.78;5071861;28;20044;-86
2022/03/31 03:41:04;;;;;;;6.32;1.60;;;;;;;2.54;100.00;101215.81;5072387;28;20048;-86
2022/03/31 03:43:32;;;;;;;3.60;1.60;;;;;;;2.38;100.00;101196.81;5069694;28;20405;-87
2022/03/31 03:45:58;;;;;;;6.50;1.50;;;;;;;2.28;100.00;101207.97;5071849;28;20429;-86
2022/03/31 03:48:25;;;;;;;5.30;1.90;;;;;;;2.57;100.00;101208.06;5070342;28;20055;-87
2022/03/31 03:50:53;;;;;;;6.45;2.15;;;;;;;2.26;100.00;101181.25;5070206;28;20074;-87
2022/03/31 03:53:20;;;;;;;5.82;1.70;;;;;;;2.16;100.00;101162.28;5060428;28;20053;-87
2022/03/31 03:55:47;;;;;;;6.75;1.77;;;;;;;2.21;100.00;101165.75;5052027;28;20519;-87
2022/03/31 03:58:14;;;;;;;7.70;1.73;;;;;;;2.42;100.00;101208.88;5051544;28;20045;-87
2022/03/31 04:00:42;;;;;;;10.18;2.30;;;;;;;2.27;100.00;101212.28;5052319;28;20053;-87
2022/03/31 04:03:09;;;;;;;12.52;2.03;;;;;;;2.34;100.00;101205.41;5058448;28;20041;-87
2022/03/31 04:05:36;;;;;;;6.03;1.50;;;;;;;2.41;100.00;101227.84;5050702;28;20495;-87
2022/03/31 04:08:03;;;;;;;6.57;1.73;;;;;;;2.09;100.00;101194.97;5052051;28;20049;-88
2022/03/31 04:10:32;;;;;;;6.22;1.67;;;;;;;2.35;100.00;101214.88;5052059;28;20057;-87
2022/03/31 04:12:59;;;;;;;8.15;1.70;;;;;;;2.30;100.00;101202.81;5065658;28;20051;-87
2022/03/31 04:15:25;;;;;;;7.10;1.60;;;;;;;2.01;100.00;101214.72;5056416;28;20521;-87
2022/03/31 04:17:52;;;;;;;4.35;1.50;;;;;;;2.09;100.00;101225.97;5052026;28;20059;-87
2022/03/31 04:20:19;;;;;;;9.65;2.13;;;;;;;2.20;100.00;101212.25;5051876;28;20055;-87
2022/03/31 04:22:46;;;;;;;6.22;1.55;;;;;;;2.33;100.00;101206.25;5055188;28;20041;-86
2022/03/31 04:25:13;;;;;;;7.60;1.65;;;;;;;2.62;100.00;101227.06;5051827;28;20053;-84
2022/03/31 04:27:41;;;;;;;3.90;1.20;;;;;;;2.32;100.00;101208.84;5066104;28;20048;-88
2022/03/31 04:30:10;;;;;;;3.60;1.60;;;;;;;2.20;100.00;101201.91;5071810;28;20131;-87
2022/03/31 04:32:38;;;;;;;6.85;1.88;;;;;;;2.40;100.00;101225.25;5066253;28;20059;-88
2022/03/31 04:35:05;;;;;;;6.85;2.00;;;;;;;2.33;100.00;101210.56;5052073;28;20176;-87
2022/03/31 04:37:34;;;;;;;10.48;1.70;;;;;;;2.23;100.00;101173.47;5051674;28;20140;-88
2022/03/31 04:40:04;;;;;;;5.50;1.70;;;;;;;1.83;100.00;101150.94;5051405;28;20077;-87
2022/03/31 04:42:31;;;;;;;9.07;2.35;;;;;;;2.11;100.00;101195.00;5058046;28;20044;-87
2022/03/31 04:44:58;;;;;;;8.50;1.85;;;;;;;1.85;100.00;101159.56;5070855;28;20135;-87
2022/03/31 04:47:29;;;;;;;8.30;2.00;;;;;;;2.13;100.00;101231.16;5072286;28;20102;-87
2022/03/31 04:49:56;;;;;;;8.73;2.25;;;;;;;2.38;100.00;101224.38;5070116;28;20048;-87
2022/03/31 04:52:23;;;;;;;4.63;1.58;;;;;;;2.44;100.00;101234.72;5068491;28;20044;-87
2022/03/31 04:54:51;;;;;;;13.07;1.83;;;;;;;1.67;100.00;101159.47;5073623;28;20143;-87
2022/03/31 04:57:18;;;;;;;5.03;1.60;;;;;;;2.32;100.00;101226.94;5074624;28;20051;-87
2022/03/31 04:59:45;;;;;;;7.93;1.83;;;;;;;2.03;100.00;101196.66;5074204;28;20399;-86
2022/03/31 05:02:12;;;;;;;5.53;1.65;;;;;;;2.30;100.00;101215.72;5073062;28;20132;-86
2022/03/31 05:04:40;;;;;;;8.05;1.80;;;;;;;2.53;100.00;101249.41;5073739;28;20056;-88
2022/03/31 05:07:08;;;;;;;6.07;1.40;;;;;;;2.19;100.00;101215.69;5073591;28;20135;-87
2022/03/31 05:09:35;;;;;;;6.47;1.60;;;;;;;2.35;100.00;101229.53;5074753;28;20061;-87
2022/03/31 05:12:03;;;;;;;7.40;1.70;;;;;;;2.09;100.00;101186.38;5074004;28;20045;-87
2022/03/31 05:14:29;;;;;;;5.95;1.60;;;;;;;2.03;100.00;101209.56;5074002;28;20401;-87
2022/03/31 05:16:56;;;;;;;6.20;1.65;;;;;;;2.25;100.00;101213.13;5074168;28;20131;-89
2022/03/31 05:19:23;;;;;;;9.35;1.85;;;;;;;2.07;100.00;101234.56;5059425;28;20044;-88
2022/03/31 05:21:50;;;;;;;7.70;1.95;;;;;;;1.81;100.00;101200.84;5058859;28;20047;-88
2022/03/31 05:24:17;;;;;;;5.88;1.75;;;;;;;2.17;100.00;101248.41;5066614;28;20402;-89
2022/03/31 05:26:44;;;;;;;7.70;1.60;;;;;;;2.00;100.00;101282.75;5073517;28;20060;-88
2022/03/31 05:29:10;;;;;;;5.72;1.58;;;;;;;2.01;100.00;101268.97;5071396;28;20387;-90
2022/03/31 05:31:37;;;;;;;7.75;1.75;;;;;;;2.09;100.00;101312.94;5064415;28;20058;-90
2022/03/31 05:34:04;;;;;;;6.93;1.77;;;;;;;2.02;100.00;101254.31;5061351;28;20057;-90
2022/03/31 05:36:31;;;;;;;5.85;1.52;;;;;;;2.47;100.00;101255.44;5065325;28;20482;-89
2022/03/31 05:38:57;;;;;;;5.85;1.40;;;;;;;2.85;100.00;101271.09;5077552;28;20053;-86
2022/03/31 05:41:25;;;;;;;5.78;1.40;;;;;;;2.96;100.00;101280.59;5062783;28;20052;-86
2022/03/31 05:43:52;;;;;;;7.00;2.75;;;;;;;2.49;100.00;101233.03;5063559;28;20056;-87
2022/03/31 05:46:21;;;;;;;4.13;1.95;;;;;;;2.69;100.00;101282.22;5067376;28;20057;-87
2022/03/31 05:48:49;;;;;;;3.03;1.30;;;;;;;2.94;100.00;101272.84;5068490;28;20524;-87
2022/03/31 05:51:18;;;;;;;2.85;1.40;;;;;;;2.47;100.00;101282.13;5071274;28;20049;-88
2022/03/31 05:53:45;;;;;;;4.45;1.40;;;;;;;2.66;100.00;101261.53;5061422;28;20048;-88
2022/03/31 05:56:12;;;;;;;4.70;1.60;;;;;;;2.35;100.00;101214.03;5066354;28;20124;-89
2022/03/31 05:58:39;;;;;;;5.20;2.10;;;;;;;2.39;100.00;101265.75;5066426;28;20048;-88
2022/03/31 06:01:06;;;;;;;4.65;1.80;;;;;;;2.32;100.00;101282.06;5069837;28;20060;-90
2022/03/31 06:03:33;;;;;;;5.00;1.70;;;;;;;2.35;100.00;101271.72;5070205;28;20552;-88
2022/03/31 06:06:02;;;;;;;3.88;1.60;;;;;;;2.20;100.00;101249.28;5063981;28;20060;-88
2022/03/31 06:08:29;;;;;;;2.13;1.20;;;;;;;2.36;100.00;101288.97;5069509;28;20063;-88
2022/03/31 06:10:56;;;;;;;3.38;1.30;;;;;;;2.33;100.00;101280.34;5063209;28;20509;-88
2022/03/31 06:13:23;;;;;;;5.55;1.55;;;;;;;2.34;100.00;101275.19;5065829;28;20040;-86
2022/03/31 06:15:50;;;;;;;6.30;1.70;;;;;;;2.16;100.00;101283.72;5053698;28;20053;-87
2022/03/31 06:18:18;;;;;;;5.50;2.00;;;;;;;2.30;100.00;101280.31;5056067;28;20752;-88
2022/03/31 06:20:45;;;;;;;3.65;1.45;;;;;;;2.57;100.00;101270.13;5070561;28;20090;-86
2022/03/31 06:23:11;;;;;;;3.00;1.40;;;;;;;2.70;100.00;101272.75;5067355;28;20045;-88
2022/03/31 06:25:41;;;;;;;4.63;1.63;;;;;;;2.47;100.00;101287.31;5064243;28;20367;-88
2022/03/31 06:28:09;;;;;;;5.22;1.90;;;;;;;2.65;100.00;101286.50;5069974;28;20045;-87
2022/03/31 06:30:36;;;;;;;8.00;1.70;;;;;;;2.74;100.00;101288.25;5062872;28;20053;-88
2022/03/31 06:33:03;;;;;;;4.10;1.40;;;;;;;2.91;100.00;101293.50;5064794;28;20075;-87
2022/03/31 06:35:30;;;;;;;2.13;1.20;;;;;;;2.58;100.00;101266.66;5064048;28;20049;-87
2022/03/31 06:37:56;;;;;;;3.13;1.30;;;;;;;2.94;100.00;101282.28;5075915;28;20190;-88
2022/03/31 06:40:24;;;;;;;5.18;1.48;;;;;;;2.95;100.00;101310.75;5065708;28;20071;-87
2022/03/31 06:42:51;;;;;;;3.15;1.40;;;;;;;2.69;100.00;101235.66;5065317;28;20041;-89
2022/03/31 06:45:19;;;;;;;5.18;1.63;;;;;;;2.99;100.00;101297.00;5070874;28;20044;-88
2022/03/31 06:47:55;;;;;;;3.33;1.58;;;;;;;3.37;100.00;101319.47;5068419;28;20542;-89
2022/03/31 06:50:29;;;;;;;6.23;1.47;;;;;;;3.03;100.00;101297.88;5058894;28;20088;-89
2022/03/31 06:52:58;;;;;;;3.70;1.50;;;;;;;2.92;100.00;101287.50;5063629;28;20305;-88
2022/03/31 06:55:26;;;;;;;4.40;1.55;;;;;;;2.82;100.00;101268.47;5060326;28;20073;-89
2022/03/31 06:57:52;;;;;;;4.65;1.90;;;;;;;2.65;100.00;101263.22;5059441;28;20049;-88
2022/03/31 07:00:20;;;;;;;7.43;1.77;;;;;;;2.95;100.00;101328.84;5055394;28;20059;-87
2022/03/31 07:02:47;;;;;;;5.95;1.75;;;;;;;3.11;100.00;101334.09;5071578;28;20041;-92
2022/03/31 07:05:15;;;;;;;7.10;2.10;;;;;;;2.81;100.00;101302.09;5076841;28;20455;-88
2022/03/31 07:07:42;;;;;;;9.68;2.17;;;;;;;2.98;100.00;101321.13;5072262;28;20082;-89
2022/03/31 07:10:09;;;;;;;6.43;1.77;;;;;;;3.08;100.00;101303.91;5070603;28;20079;-89
2022/03/31 07:12:39;;;;;;;6.85;1.98;;;;;;;3.40;100.00;101334.16;5066391;28;20394;-88
2022/03/31 07:15:09;;;;;;;8.18;2.30;;;;;;;3.30;100.00;101329.84;5063502;28;20139;-87
2022/03/31 07:17:36;;;;;;;8.02;2.60;;;;;;;3.76;100.00;101325.53;5069892;28;20052;-88
2022/03/31 07:20:04;;;;;;;7.95;2.10;;;;;;;4.21;100.00;101335.88;5072146;28;20049;-88
2022/03/31 07:22:32;;;;;;;6.97;2.10;;;;;;;4.11;100.00;101332.44;5070077;28;20076;-88
2022/03/31 07:25:00;;;;;;;11.60;2.28;;;;;;;3.88;100.00;101326.41;5056005;28;20056;-87
2022/03/31 07:27:26;;;;;;;10.60;2.03;;;;;;;3.71;100.00;101318.66;5072007;28;20143;-86
2022/03/31 07:29:53;;;;;;;9.93;1.95;;;;;;;3.54;100.00;101326.41;5071779;28;20075;-86
2022/03/31 07:32:20;;;;;;;11.20;2.45;;;;;;;3.56;100.00;101322.97;5074320;28;20036;-91
2022/03/31 07:34:47;;;;;;;8.35;2.72;;;;;;;3.89;100.00;101344.53;5059734;28;20063;-88
2022/03/31 07:37:13;;;;;;;5.03;1.60;;;;;;;4.41;100.00;101328.06;5067055;28;20127;-87
2022/03/31 07:39:45;;;;;;;6.95;2.00;;;;;;;4.43;100.00;101323.75;5056774;28;20501;-87
2022/03/31 07:42:14;;;;;;;4.63;1.80;;;;;;;4.10;100.00;101335.88;5059571;28;20094;-86
2022/03/31 07:44:41;;;;;;;6.43;1.90;;;;;;;4.51;100.00;101311.59;5072780;28;20534;-87
2022/03/31 07:47:08;;;;;;;7.68;2.00;;;;;;;4.53;100.00;101328.03;5070311;28;20045;-83
2022/03/31 07:49:35;;;;;;;4.22;1.60;;;;;;;4.71;100.00;101311.53;5071100;28;20049;-88
2022/03/31 07:52:03;;;;;;;5.22;1.80;;;;;;;5.58;100.00;101322.28;5069918;28;20364;-88
2022/03/31 07:54:31;;;;;;;5.10;1.65;;;;;;;5.98;100.00;101318.50;5054368;28;20053;-88
2022/03/31 07:56:58;;;;;;;8.13;2.75;;;;;;;6.52;100.00;101313.63;5055437;28;20080;-86
2022/03/31 07:59:29;;;;;;;3.92;1.30;;;;;;;6.39;100.00;101302.50;5067942;28;20539;-86
2022/03/31 08:01:56;;;;;;;7.38;1.90;;;;;;;6.14;100.00;101307.06;5070617;28;20490;-86
2022/03/31 08:04:23;;;;;;;4.00;1.60;;;;;;;6.03;100.00;101316.72;5069846;28;20056;-86
2022/03/31 08:06:51;;;;;;;7.28;1.50;;;;;;;6.24;100.00;101323.47;5066243;28;20445;-86
2022/03/31 08:09:20;;;;;;;11.40;2.15;;;;;;;6.38;100.00;101308.56;5066201;28;20049;-86
2022/03/31 08:11:51;;;;;;;4.85;1.60;;;;;;;6.82;100.00;101307.19;5051838;28;20081;-86
2022/03/31 08:14:19;;;;;;;5.55;1.65;;;;;;;7.03;100.00;101321.66;5069428;28;20049;-86
2022/03/31 08:16:48;;;;;;;7.55;1.63;;;;;;;6.59;100.00;101338.69;5066164;28;20056;-87
2022/03/31 08:19:17;;;;;;;6.43;1.50;;;;;;;6.06;100.00;101348.75;5050194;28;20059;-87
2022/03/31 08:21:45;;;;;;;11.10;2.35;;;;;;;5.51;100.00;101342.25;5053415;28;20049;-87
2022/03/31 08:24:13;;;;;;;5.95;1.60;;;;;;;5.92;100.00;101331.53;5069061;28;20052;-86
2022/03/31 08:26:41;;;;;;;14.00;2.30;;;;;;;5.55;100.00;101353.47;5071070;28;20182;-89
2022/03/31 08:29:08;;;;;;;7.60;2.10;;;;;;;6.31;100.00;101330.31;5072932;28;20056;-89
2022/03/31 08:31:35;;;;;;;13.57;2.80;;;;;;;6.12;100.00;101320.97;5075112;28;20127;-88
2022/03/31 08:34:05;;;;;;;13.55;3.10;;;;;;;6.78;100.00;101344.53;5073963;28;20048;-87
2022/03/31 08:36:32;;;;;;;11.75;3.58;;;;;;;5.96;100.00;101338.47;5060136;28;20059;-88
2022/03/31 08:38:58;;;;;;;8.68;3.15;;;;;;;6.28;100.00;101332.94;5075687;28;20052;-88
2022/03/31 08:41:27;;;;;;;12.80;3.78;;;;;;;5.40;100.00;101351.84;5072390;28;20044;-88
2022/03/31 08:43:56;;;;;;;10.95;3.90;;;;;;;5.40;100.00;101359.63;5069347;28;20049;-87
2022/03/31 08:46:27;;;;;;;14.75;4.30;;;;;;;5.34;100.00;101344.06;5070229;28;20048;-87
2022/03/31 08:48:56;;;;;;;12.13;3.83;;;;;;;5.16;100.00;101331.22;5088874;28;20107;-88
2022/03/31 08:51:23;;;;;;;10.80;3.05;;;;;;;5.66;100.00;101353.38;5074017;28;20041;-88
2022/03/31 08:53:51;;;;;;;9.13;2.78;;;;;;;5.35;100.00;101331.94;5073229;28;20070;-87
2022/03/31 08:56:17;;;;;;;9.00;2.22;;;;;;;5.31;100.00;101338.91;5072693;28;20107;-87
2022/03/31 08:58:46;;;;;;;7.13;2.30;;;;;;;5.12;100.00;101331.22;5072911;28;20143;-87
2022/03/31 09:01:14;;;;;;;8.15;1.90;;;;;;;5.38;100.00;101356.16;5075470;28;20044;-87
2022/03/31 09:03:42;;;;;;;7.43;2.40;;;;;;;5.32;100.00;101346.69;5063639;28;20055;-87
2022/03/31 09:06:29;;;;;;;12.45;2.70;;;;;;;5.33;100.00;101351.00;5056231;28;20053;-87
2022/03/31 09:09:05;;;;;;;13.07;2.70;;;;;;;5.02;100.00;101349.44;5074452;28;20139;-87
2022/03/31 09:11:37;;;;;;;5.60;1.77;;;;;;;5.63;100.00;101338.69;5073789;28;20053;-87
2022/03/31 09:14:15;;;;;;;;;;;;;;;6.48;100.00;101348.38;5071720;28;20125;-87
2022/03/31 09:16:43;;;;;;;7.78;2.40;;;;;;;6.98;100.00;101333.88;5054995;28;19927;-87
2022/03/31 09:19:11;;;;;;;10.70;2.78;;;;;;;7.76;100.00;101354.47;5065294;28;20052;-87
2022/03/31 09:22:00;;;;;;;10.68;2.40;;;;;;;7.36;100.00;101361.13;5073846;28;20635;-87
2022/03/31 09:24:29;;;;;;;6.22;2.00;;;;;;;6.70;100.00;101356.78;5072132;28;20044;-88
2022/03/31 09:26:58;;;;;;;8.05;3.30;;;;;;;6.46;100.00;101374.38;5069291;28;20128;-88
2022/03/31 09:29:27;;;;;;;8.70;1.98;;;;;;;5.90;100.00;101363.59;5054285;28;20059;-88
2022/03/31 09:32:09;;;;;;;6.40;1.90;;;;;;;6.09;100.00;101360.84;5055442;28;20486;-88
2022/03/31 09:34:44;;;;;;;7.93;2.75;;;;;;;5.87;100.00;101368.81;5059899;28;20046;-88
2022/03/31 09:37:12;;;;;;;6.30;1.63;;;;;;;5.80;100.00;101393.13;5073114;28;20044;-87
2022/03/31 09:39:41;;;;;;;8.65;1.80;;;;;;;5.72;100.00;101376.75;5073374;28;20059;-88
2022/03/31 09:42:12;;;;;;;8.20;2.33;;;;;;;5.36;100.00;101383.88;5071158;28;20447;-86
2022/03/31 09:44:42;;;;;;;8.00;2.20;;;;;;;4.87;100.00;101390.19;5072377;28;20040;-87
2022/03/31 09:47:10;;;;;;;7.03;1.58;;;;;;;4.56;100.00;101413.59;5074108;28;20048;-87
2022/03/31 09:49:37;;;;;;;8.18;1.88;;;;;;;4.08;100.00;101427.47;5073022;28;20060;-85
2022/03/31 09:52:07;;;;;;;5.40;1.52;;;;;;;3.79;100.00;101426.59;5072416;28;20067;-85
2022/03/31 09:54:35;;;;;;;6.90;1.80;;;;;;;3.52;100.00;101427.38;5071713;28;20075;-86
2022/03/31 09:57:07;;;;;;;6.22;1.95;;;;;;;3.65;100.00;101433.47;5073026;28;20045;-86
2022/03/31 09:59:38;;;;;;;5.68;2.38;;;;;;;3.60;100.00;101396.34;5067345;28;20156;-85
2022/03/31 10:02:06;;;;;;;8.15;1.90;;;;;;;4.10;100.00;101384.28;5062028;28;20057;-86
2022/03/31 10:04:34;;;;;;;3.28;1.50;;;;;;;4.72;100.00;101404.03;5067342;28;20067;-87
2022/03/31 10:07:02;;;;;;;8.20;1.92;;;;;;;4.52;100.00;101357.41;5064211;28;20513;-86
2022/03/31 10:09:32;;;;;;;7.57;1.90;;;;;;;5.18;100.00;101387.44;5071841;28;20044;-87
2022/03/31 10:12:14;;;;;;;7.10;1.88;;;;;;;5.29;100.00;101385.66;5071146;28;20068;-87
2022/03/31 10:14:50;;;;;;;7.72;2.10;;;;;;;5.76;100.00;101407.03;5064235;28;20814;-87
2022/03/31 10:17:25;;;;;;;7.35;1.75;;;;;;;5.53;100.00;101393.31;5053980;28;20666;-86
2022/03/31 10:19:52;;;;;;;10.90;2.35;;;;;;;5.46;100.00;101397.69;5058411;28;20066;-85
2022/03/31 10:25:10;;;;;;;11.55;3.67;;;;;;;5.82;100.00;101409.56;5073056;28;20116;-88
2022/03/31 10:27:45;;;;;;;8.30;2.53;;;;;;;6.07;100.00;101402.50;5072467;28;20727;-88
2022/03/31 10:30:21;;;;;;;12.07;2.67;;;;;;;6.55;100.00;101408.97;5054254;28;20052;-89
2022/03/31 10:32:58;;;;;;;10.68;2.33;;;;;;;6.81;100.00;101408.69;5074922;28;20132;-88
2022/03/31 10:35:31;;;;;;;12.98;3.03;;;;;;;6.59;100.00;101419.34;5069198;28;20534;-88
2022/03/31 10:38:12;;;;;;;7.35;1.60;;;;;;;4.78;100.00;101417.88;5053827;28;20051;-88
2022/03/31 10:40:42;;;;;;;3.72;1.35;;;;;;;4.57;100.00;101443.84;5073288;28;20049;-87
2022/03/31 10:43:31;;;;;;;7.88;1.42;;;;;;;4.05;100.00;101433.50;5067040;28;20080;-87
2022/03/31 10:46:00;;;;;;;6.20;1.83;;;;;;;4.19;100.00;101447.31;5071826;28;20079;-87
2022/03/31 10:48:36;;;;;;;9.57;2.30;;;;;;;4.18;100.00;101453.38;5071496;28;20048;-87
2022/03/31 10:51:03;;;;;;;7.22;3.08;;;;;;;4.40;100.00;101436.97;5072946;28;20672;-88
2022/03/31 10:53:32;;;;;;;8.88;3.40;;;;;;;4.84;100.00;101434.28;5067643;28;20471;-88
2022/03/31 10:56:02;;;;;;;9.75;2.35;;;;;;;4.33;100.00;101405.84;5052886;28;20140;-88
2022/03/31 10:58:32;;;;;;;4.47;1.50;;;;;;;4.85;100.00;101402.28;5051859;28;20053;-88
2022/03/31 11:01:02;;;;;;;2.40;1.27;;;;;;;5.19;100.00;101407.34;5060766;28;20052;-88
2022/03/31 11:03:29;;;;;;;5.80;1.67;;;;;;;5.16;100.00;101420.34;5064170;28;20040;-88
2022/03/31 11:06:00;;;;;;;5.38;1.63;;;;;;;5.11;100.00;101390.94;5052584;28;20083;-88
2022/03/31 11:08:27;;;;;;;4.47;1.50;;;;;;;4.86;100.00;101400.56;5050871;28;20055;-88
2022/03/31 11:10:54;;;;;;;5.22;1.70;;;;;;;5.45;100.00;101388.16;5052481;28;20049;-88
2022/03/31 11:13:35;;;;;;;7.82;2.03;;;;;;;5.31;100.00;101383.03;5065141;28;20104;-88
2022/03/31 11:16:04;;;;;;;4.97;1.60;;;;;;;5.85;100.00;101377.50;5072956;28;20538;-88
2022/03/31 11:18:31;;;;;;;5.25;1.60;;;;;;;5.84;100.00;101375.75;5071258;28;20086;-87
2022/03/31 11:21:03;;;;;;;5.40;1.83;;;;;;;6.22;100.00;101380.69;5071752;28;20143;-88
2022/03/31 11:23:31;;;;;;;7.70;2.38;;;;;;;6.14;100.00;101387.69;5070726;28;20040;-86
2022/03/31 11:25:59;;;;;;;10.10;3.20;;;;;;;6.33;100.00;101385.78;5072213;28;20049;-88
2022/03/31 11:28:29;;;;;;;10.98;3.10;;;;;;;6.74;100.00;101374.06;5072344;28;20504;-89
2022/03/31 11:30:59;;;;;;;7.60;2.38;;;;;;;6.64;100.00;101375.94;5071141;28;20080;-88
2022/03/31 11:33:36;;;;;;;7.10;2.35;;;;;;;6.79;100.00;101381.84;5069695;28;20059;-88
2022/03/31 11:36:03;;;;;;;5.90;2.00;;;;;;;6.55;100.00;101367.34;5072438;28;20540;-88